createdAt,value
2018-12-11T00:00:13.114Z,0
2018-12-11T00:01:13.514Z,0
2018-12-11T00:02:13.910Z,0
2018-12-11T00:03:14.582Z,0
2018-12-11T00:04:15.980Z,0
2018-12-11T00:05:16.151Z,0
2018-12-11T00:06:16.826Z,0
2018-12-11T00:07:17.658Z,0
2018-12-11T00:08:19.057Z,0
2018-12-11T00:09:19.456Z,0
2018-12-11T00:10:20.850Z,0
2018-12-11T00:11:21.526Z,0
2018-12-11T00:12:22.199Z,0
2018-12-11T00:13:23.876Z,0
2018-12-11T00:14:23.995Z,0
2018-12-11T00:15:25.391Z,0
2018-12-11T00:16:26.065Z,0
2018-12-11T00:17:26.898Z,0
2018-12-11T00:18:27.902Z,0
2018-12-11T00:19:28.583Z,0
2018-12-11T00:20:29.230Z,0
2018-12-11T00:21:29.687Z,0
2018-12-11T00:22:30.647Z,0
2018-12-11T00:23:30.767Z,0
2018-12-11T00:24:32.167Z,0
2018-12-11T00:25:32.840Z,0
2018-12-11T00:26:33.239Z,0
2018-12-11T00:27:34.306Z,0
2018-12-11T00:28:34.431Z,0
2018-12-11T00:29:35.554Z,0
2018-12-11T00:30:36.226Z,0
2018-12-11T00:31:36.349Z,0
2018-12-11T00:32:37.027Z,0
2018-12-11T00:33:37.702Z,0
2018-12-11T00:34:38.374Z,0
2018-12-11T00:35:39.327Z,0
2018-12-11T00:36:40.002Z,0
2018-12-11T00:37:40.545Z,0
2018-12-11T00:38:41.220Z,0
2018-12-11T00:39:41.897Z,0
2018-12-11T00:40:42.575Z,0
2018-12-11T00:41:42.972Z,0
2018-12-11T00:42:43.649Z,0
2018-12-11T00:43:45.054Z,0
2018-12-11T00:44:46.003Z,0
2018-12-11T00:45:47.241Z,0
2018-12-11T00:46:47.233Z,0
2018-12-11T00:47:48.936Z,0
2018-12-11T00:48:49.443Z,0
2018-12-11T00:49:50.120Z,0
2018-12-11T00:50:50.805Z,0
2018-12-11T00:51:51.200Z,0
2018-12-11T00:52:51.882Z,0
2018-12-11T00:53:52.559Z,0
2018-12-11T00:54:54.065Z,0
2018-12-11T00:55:54.018Z,0
2018-12-11T00:56:54.695Z,0
2018-12-11T00:57:55.513Z,0
2018-12-11T00:58:56.911Z,0
2018-12-11T00:59:57.313Z,0
2018-12-11T01:00:58.989Z,0
2018-12-11T01:01:59.664Z,0
2018-12-11T01:03:00.340Z,0
2018-12-11T01:04:00.467Z,0
2018-12-11T01:05:00.915Z,0
2018-12-11T01:06:02.149Z,0
2018-12-11T01:07:01.824Z,0
2018-12-11T01:08:02.342Z,0
2018-12-11T01:09:03.747Z,0
2018-12-11T01:10:04.425Z,0
2018-12-11T01:11:04.821Z,0
2018-12-11T01:12:05.215Z,0
2018-12-11T01:13:05.337Z,0
2018-12-11T01:14:07.010Z,0
2018-12-11T01:15:07.959Z,0
2018-12-11T01:16:07.696Z,0
2018-12-11T01:17:08.373Z,0
2018-12-11T01:18:09.494Z,0
2018-12-11T01:19:09.614Z,0
2018-12-11T01:20:10.009Z,0
2018-12-11T01:21:10.989Z,0
2018-12-11T01:22:11.665Z,0
2018-12-11T01:23:12.783Z,0
2018-12-11T01:24:13.458Z,0
2018-12-11T01:25:26.243Z,0
2018-12-11T01:26:27.068Z,0
2018-12-11T01:27:27.747Z,0
2018-12-11T01:28:28.197Z,0
2018-12-11T01:29:28.876Z,0
2018-12-11T01:30:30.281Z,0
2018-12-11T01:31:30.679Z,0
2018-12-11T01:32:31.083Z,0
2018-12-11T01:33:32.209Z,0
2018-12-11T01:34:32.885Z,0
2018-12-11T01:35:33.573Z,0
2018-12-11T01:36:34.098Z,0
2018-12-11T01:37:34.499Z,0
2018-12-11T01:38:34.947Z,0
2018-12-11T01:39:35.628Z,0
2018-12-11T01:40:36.033Z,0
2018-12-11T01:41:36.997Z,0
2018-12-11T01:42:37.393Z,0
2018-12-11T01:43:39.072Z,0
2018-12-11T01:44:39.752Z,0
2018-12-11T01:45:40.156Z,0
2018-12-11T01:46:40.961Z,0
2018-12-11T01:47:41.665Z,0
2018-12-11T01:48:42.624Z,0
2018-12-11T01:49:42.585Z,0
2018-12-11T01:50:43.262Z,0
2018-12-11T01:51:43.661Z,0
2018-12-11T01:52:44.340Z,0
2018-12-11T01:53:45.298Z,0
2018-12-11T01:54:46.260Z,0
2018-12-11T01:55:47.502Z,0
2018-12-11T01:56:48.369Z,0
2018-12-11T01:57:48.774Z,0
2018-12-11T01:58:49.736Z,0
2018-12-11T01:59:49.413Z,0
2018-12-11T02:00:50.093Z,0
2018-12-11T02:01:50.771Z,0
2018-12-11T02:02:51.791Z,0
2018-12-11T02:03:51.914Z,0
2018-12-11T02:04:52.645Z,0
2018-12-11T02:05:54.045Z,0
2018-12-11T02:06:55.129Z,0
2018-12-11T02:07:55.882Z,0
2018-12-11T02:08:56.571Z,0
2018-12-11T02:09:57.809Z,0
2018-12-11T02:10:58.046Z,0
2018-12-11T02:11:58.174Z,0
2018-12-11T02:12:59.408Z,0
2018-12-11T02:14:00.090Z,0
2018-12-11T02:15:00.771Z,0
2018-12-11T02:16:02.283Z,0
2018-12-11T02:17:01.828Z,0
2018-12-11T02:18:03.063Z,0
2018-12-11T02:19:03.468Z,0
2018-12-11T02:20:03.870Z,0
2018-12-11T02:21:04.268Z,0
2018-12-11T02:22:05.673Z,0
2018-12-11T02:23:06.077Z,0
2018-12-11T02:24:07.328Z,0
2018-12-11T02:25:08.008Z,0
2018-12-11T02:26:08.266Z,0
2018-12-11T02:27:09.657Z,0
2018-12-11T02:28:10.616Z,0
2018-12-11T02:29:11.018Z,0
2018-12-11T02:30:11.699Z,0
2018-12-11T02:31:12.656Z,0
2018-12-11T02:32:14.174Z,0
2018-12-11T02:33:15.142Z,0
2018-12-11T02:34:15.653Z,0
2018-12-11T02:35:16.168Z,0
2018-12-11T02:36:16.854Z,0
2018-12-11T02:37:17.769Z,0
2018-12-11T02:38:18.734Z,0
2018-12-11T02:39:20.432Z,0
2018-12-11T02:40:21.675Z,0
2018-12-11T02:41:21.639Z,0
2018-12-11T02:42:22.152Z,0
2018-12-11T02:43:23.403Z,0
2018-12-11T02:44:23.920Z,0
2018-12-11T02:45:24.884Z,0
2018-12-11T02:46:24.839Z,0
2018-12-11T02:47:26.034Z,0
2018-12-11T02:48:26.271Z,0
2018-12-11T02:49:26.998Z,0
2018-12-11T02:50:28.244Z,0
2018-12-11T02:51:28.246Z,0
2018-12-11T02:52:29.311Z,0
2018-12-11T02:53:30.273Z,0
2018-12-11T02:54:31.033Z,0
2018-12-11T02:55:31.713Z,0
2018-12-11T02:56:32.395Z,0
2018-12-11T02:57:33.636Z,0
2018-12-11T02:58:34.048Z,0
2018-12-11T02:59:34.732Z,0
2018-12-11T03:00:35.974Z,0
2018-12-11T03:01:36.211Z,0
2018-12-11T03:02:36.613Z,0
2018-12-11T03:03:37.878Z,0
2018-12-11T03:04:38.390Z,0
2018-12-11T03:05:39.926Z,0
2018-12-11T03:06:40.062Z,0
2018-12-11T03:07:40.806Z,0
2018-12-11T03:08:42.327Z,0
2018-12-11T03:09:42.035Z,0
2018-12-11T03:10:42.990Z,0
2018-12-11T03:11:44.785Z,0
2018-12-11T03:12:44.463Z,0
2018-12-11T03:13:45.448Z,0
2018-12-11T03:14:45.571Z,0
2018-12-11T03:15:46.546Z,0
2018-12-11T03:16:47.778Z,0
2018-12-11T03:17:48.945Z,0
2018-12-11T03:18:49.461Z,0
2018-12-11T03:19:49.702Z,0
2018-12-11T03:20:50.223Z,0
2018-12-11T03:21:50.630Z,0
2018-12-11T03:22:50.878Z,0
2018-12-11T03:23:51.559Z,0
2018-12-11T03:24:52.242Z,0
2018-12-11T03:25:53.479Z,0
2018-12-11T03:26:53.716Z,0
2018-12-11T03:27:54.865Z,0
2018-12-11T03:28:54.990Z,0
2018-12-11T03:29:56.809Z,0
2018-12-11T03:30:58.623Z,0
2018-12-11T03:31:59.184Z,0
2018-12-11T03:32:59.736Z,0
2018-12-11T03:34:00.816Z,0
2018-12-11T03:35:01.065Z,0
2018-12-11T03:36:01.317Z,0
2018-12-11T03:37:02.552Z,0
2018-12-11T03:38:03.018Z,0
2018-12-11T03:39:03.972Z,0
2018-12-11T03:40:05.240Z,0
2018-12-11T03:41:05.777Z,0
2018-12-11T03:42:07.011Z,0
2018-12-11T03:43:06.697Z,0
2018-12-11T03:44:07.658Z,0
2018-12-11T03:45:09.523Z,0
2018-12-11T03:46:10.208Z,0
2018-12-11T03:47:11.165Z,0
2018-12-11T03:48:11.250Z,0
2018-12-11T03:49:12.376Z,0
2018-12-11T03:50:14.339Z,0
2018-12-11T03:51:13.755Z,0
2018-12-11T03:52:26.183Z,0
2018-12-11T03:53:27.017Z,0
2018-12-11T03:54:27.983Z,0
2018-12-11T03:55:28.481Z,0
2018-12-11T03:56:29.729Z,0
2018-12-11T03:57:30.444Z,0
2018-12-11T03:58:32.411Z,0
2018-12-11T03:59:33.749Z,0
2018-12-11T04:00:33.156Z,0
2018-12-11T04:01:34.122Z,0
2018-12-11T04:02:35.148Z,0
2018-12-11T04:03:36.536Z,0
2018-12-11T04:04:37.222Z,0
2018-12-11T04:05:38.495Z,0
2018-12-11T04:06:39.460Z,0
2018-12-11T04:07:40.151Z,0
2018-12-11T04:08:41.121Z,0
2018-12-11T04:09:42.079Z,0
2018-12-11T04:10:42.331Z,0
2018-12-11T04:11:42.288Z,0
2018-12-11T04:12:43.246Z,0
2018-12-11T04:13:44.127Z,0
2018-12-11T04:14:45.640Z,0
2018-12-11T04:15:45.887Z,0
2018-12-11T04:16:46.163Z,0
2018-12-11T04:17:46.848Z,0
2018-12-11T04:18:47.744Z,0
2018-12-11T04:19:50.709Z,0
2018-12-11T04:20:51.398Z,0
2018-12-11T04:21:52.100Z,0
2018-12-11T04:22:53.067Z,0
2018-12-11T04:23:53.727Z,0
2018-12-11T04:24:54.404Z,0
2018-12-11T04:25:55.085Z,0
2018-12-11T04:26:55.766Z,0
2018-12-11T04:27:57.278Z,0
2018-12-11T04:28:56.967Z,0
2018-12-11T04:29:57.945Z,0
2018-12-11T04:30:58.087Z,0
2018-12-11T04:31:58.770Z,0
2018-12-11T04:32:59.455Z,0
2018-12-11T04:34:00.852Z,0
2018-12-11T04:35:01.251Z,0
2018-12-11T04:36:02.775Z,0
2018-12-11T04:37:03.744Z,0
2018-12-11T04:38:04.150Z,0
2018-12-11T04:39:05.111Z,0
2018-12-11T04:40:05.509Z,0
2018-12-11T04:41:06.762Z,0
2018-12-11T04:42:06.438Z,0
2018-12-11T04:43:06.844Z,0
2018-12-11T04:44:08.231Z,0
2018-12-11T04:45:08.478Z,0
2018-12-11T04:46:08.894Z,0
2018-12-11T04:47:10.687Z,0
2018-12-11T04:48:10.394Z,0
2018-12-11T04:49:11.797Z,0
2018-12-11T04:50:12.755Z,0
2018-12-11T04:51:13.157Z,0
2018-12-11T04:52:13.559Z,0
2018-12-11T04:53:14.578Z,0
2018-12-11T04:54:15.233Z,0
2018-12-11T04:55:15.635Z,0
2018-12-11T04:56:16.034Z,0
2018-12-11T04:57:16.996Z,0
2018-12-11T04:58:17.958Z,0
2018-12-11T04:59:18.360Z,0
2018-12-11T05:00:19.319Z,0
2018-12-11T05:01:19.721Z,0
2018-12-11T05:02:20.682Z,0
2018-12-11T05:03:20.810Z,0
2018-12-11T05:04:21.939Z,0
2018-12-11T05:05:22.621Z,0
2018-12-11T05:06:22.748Z,0
2018-12-11T05:07:23.989Z,0
2018-12-11T05:08:24.392Z,0
2018-12-11T05:09:25.799Z,0
2018-12-11T05:10:26.480Z,0
2018-12-11T05:11:27.435Z,0
2018-12-11T05:12:28.114Z,0
2018-12-11T05:13:28.562Z,0
2018-12-11T05:14:29.101Z,0
2018-12-11T05:15:30.057Z,0
2018-12-11T05:16:30.181Z,0
2018-12-11T05:17:31.610Z,0
2018-12-11T05:18:32.014Z,0
2018-12-11T05:19:32.974Z,0
2018-12-11T05:20:33.145Z,0
2018-12-11T05:21:33.824Z,0
2018-12-11T05:22:34.946Z,0
2018-12-11T05:23:35.626Z,0
2018-12-11T05:24:36.445Z,0
2018-12-11T05:25:37.402Z,0
2018-12-11T05:26:37.524Z,0
2018-12-11T05:27:38.502Z,0
2018-12-11T05:28:39.181Z,0
2018-12-11T05:29:39.855Z,0
2018-12-11T05:30:40.980Z,0
2018-12-11T05:31:41.939Z,0
2018-12-11T05:32:43.063Z,0
2018-12-11T05:33:44.195Z,0
2018-12-11T05:34:45.413Z,0
2018-12-11T05:35:45.114Z,0
2018-12-11T05:36:45.295Z,0
2018-12-11T05:37:45.696Z,0
2018-12-11T05:38:46.821Z,0
2018-12-11T05:39:47.943Z,0
2018-12-11T05:40:49.074Z,0
2018-12-11T05:41:50.033Z,0
2018-12-11T05:42:50.049Z,0
2018-12-11T05:43:51.008Z,0
2018-12-11T05:44:51.843Z,0
2018-12-11T05:45:52.809Z,0
2018-12-11T05:46:53.491Z,0
2018-12-11T05:47:54.453Z,0
2018-12-11T05:48:54.581Z,0
2018-12-11T05:49:55.712Z,0
2018-12-11T05:50:56.393Z,0
2018-12-11T05:51:57.358Z,0
2018-12-11T05:52:57.768Z,0
2018-12-11T05:53:58.784Z,0
2018-12-11T05:54:58.956Z,0
2018-12-11T05:56:00.084Z,0
2018-12-11T05:57:01.642Z,0
2018-12-11T05:58:03.439Z,0
2018-12-11T05:59:03.399Z,0
2018-12-11T06:00:03.835Z,4
2018-12-11T06:01:04.242Z,0
2018-12-11T06:02:05.195Z,0
2018-12-11T06:03:05.429Z,0
2018-12-11T06:04:05.835Z,0
2018-12-11T06:05:06.642Z,0
2018-12-11T06:06:06.326Z,0
2018-12-11T06:07:07.729Z,0
2018-12-11T06:08:07.919Z,0
2018-12-11T06:09:09.427Z,0
2018-12-11T06:10:10.665Z,0
2018-12-11T06:11:10.787Z,0
2018-12-11T06:12:11.465Z,0
2018-12-11T06:13:12.698Z,0
2018-12-11T06:14:12.652Z,0
2018-12-11T06:15:13.459Z,0
2018-12-11T06:16:14.698Z,0
2018-12-11T06:17:14.823Z,0
2018-12-11T06:18:15.781Z,0
2018-12-11T06:19:16.495Z,0
2018-12-11T06:20:16.617Z,0
2018-12-11T06:21:18.021Z,4
2018-12-11T06:22:18.425Z,4
2018-12-11T06:23:20.109Z,0
2018-12-11T06:24:20.788Z,0
2018-12-11T06:25:22.143Z,4
2018-12-11T06:26:22.834Z,4
2018-12-11T06:27:24.069Z,4
2018-12-11T06:28:23.818Z,4
2018-12-11T06:29:24.501Z,8
2018-12-11T06:30:25.460Z,4
2018-12-11T06:31:25.589Z,12
2018-12-11T06:32:26.822Z,8
2018-12-11T06:33:27.226Z,8
2018-12-11T06:34:28.694Z,8
2018-12-11T06:35:29.498Z,12
2018-12-11T06:36:31.181Z,12
2018-12-11T06:37:31.594Z,16
2018-12-11T06:38:32.275Z,16
2018-12-11T06:39:32.956Z,20
2018-12-11T06:40:33.639Z,24
2018-12-11T06:41:34.323Z,24
2018-12-11T06:42:35.730Z,28
2018-12-11T06:43:36.687Z,28
2018-12-11T06:44:37.425Z,32
2018-12-11T06:45:38.265Z,36
2018-12-11T06:46:38.659Z,40
2018-12-11T06:47:39.066Z,40
2018-12-11T06:48:39.744Z,48
2018-12-11T06:49:40.427Z,48
2018-12-11T06:50:41.107Z,52
2018-12-11T06:51:42.512Z,56
2018-12-11T06:52:42.916Z,56
2018-12-11T06:53:43.319Z,60
2018-12-11T06:54:45.403Z,60
2018-12-11T06:55:46.980Z,64
2018-12-11T06:56:47.832Z,68
2018-12-11T06:57:48.298Z,72
2018-12-11T06:58:49.198Z,72
2018-12-11T06:59:49.405Z,80
2018-12-11T07:00:50.176Z,84
2018-12-11T07:01:50.402Z,88
2018-12-11T07:02:51.404Z,96
2018-12-11T07:03:51.863Z,100
2018-12-11T07:04:52.322Z,104
2018-12-11T07:05:53.418Z,112
2018-12-11T07:06:54.402Z,124
2018-12-11T07:07:55.378Z,132
2018-12-11T07:08:55.636Z,136
2018-12-11T07:09:56.311Z,144
2018-12-11T07:10:57.271Z,152
2018-12-11T07:11:57.747Z,160
2018-12-11T07:12:58.456Z,172
2018-12-11T07:13:58.862Z,180
2018-12-11T07:14:59.268Z,192
2018-12-11T07:16:00.254Z,208
2018-12-11T07:17:00.459Z,224
2018-12-11T07:18:01.419Z,244
2018-12-11T07:19:01.383Z,260
2018-12-11T07:20:02.075Z,268
2018-12-11T07:21:02.481Z,276
2018-12-11T07:22:04.235Z,284
2018-12-11T07:23:04.917Z,292
2018-12-11T07:24:05.330Z,308
2018-12-11T07:25:06.296Z,312
2018-12-11T07:26:06.845Z,316
2018-12-11T07:27:07.527Z,324
2018-12-11T07:28:09.218Z,336
2018-12-11T07:29:09.651Z,368
2018-12-11T07:30:09.783Z,420
2018-12-11T07:31:10.526Z,472
2018-12-11T07:32:11.540Z,504
2018-12-11T07:33:11.940Z,528
2018-12-11T07:34:13.181Z,516
2018-12-11T07:35:13.722Z,500
2018-12-11T07:36:14.826Z,480
2018-12-11T07:37:15.788Z,468
2018-12-11T07:38:16.197Z,452
2018-12-11T07:39:17.647Z,428
2018-12-11T07:40:17.370Z,404
2018-12-11T07:41:18.205Z,404
2018-12-11T07:42:19.053Z,416
2018-12-11T07:43:19.564Z,416
2018-12-11T07:44:19.966Z,452
2018-12-11T07:45:20.403Z,512
2018-12-11T07:46:20.821Z,560
2018-12-11T07:47:21.221Z,588
2018-12-11T07:48:22.348Z,592
2018-12-11T07:49:23.063Z,588
2018-12-11T07:50:23.471Z,584
2018-12-11T07:51:24.599Z,596
2018-12-11T07:52:25.723Z,640
2018-12-11T07:53:26.130Z,648
2018-12-11T07:54:26.661Z,644
2018-12-11T07:55:27.458Z,632
2018-12-11T07:56:29.073Z,656
2018-12-11T07:57:29.199Z,728
2018-12-11T07:58:29.614Z,792
2018-12-11T07:59:30.293Z,868
2018-12-11T08:00:30.774Z,980
2018-12-11T08:01:30.999Z,1104
2018-12-11T08:02:31.160Z,1276
2018-12-11T08:03:32.287Z,1488
2018-12-11T08:04:34.528Z,1732
2018-12-11T08:05:34.219Z,1924
2018-12-11T08:06:34.759Z,2072
2018-12-11T08:07:35.176Z,2104
2018-12-11T08:08:35.303Z,2068
2018-12-11T08:09:36.437Z,1960
2018-12-11T08:10:37.923Z,1816
2018-12-11T08:11:39.052Z,1768
2018-12-11T08:12:40.290Z,1672
2018-12-11T08:13:40.773Z,1516
2018-12-11T08:14:40.906Z,1312
2018-12-11T08:15:41.312Z,1120
2018-12-11T08:16:41.571Z,1004
2018-12-11T08:17:42.254Z,920
2018-12-11T08:18:43.383Z,832
2018-12-11T08:19:43.667Z,752
2018-12-11T08:20:44.522Z,696
2018-12-11T08:21:45.009Z,652
2018-12-11T08:22:45.691Z,620
2018-12-11T08:23:46.375Z,592
2018-12-11T08:24:46.564Z,608
2018-12-11T08:25:46.973Z,644
2018-12-11T08:26:48.066Z,712
2018-12-11T08:27:48.201Z,776
2018-12-11T08:28:48.879Z,840
2018-12-11T08:29:50.042Z,888
2018-12-11T08:30:51.455Z,908
2018-12-11T08:31:51.862Z,888
2018-12-11T08:32:52.550Z,868
2018-12-11T08:33:52.681Z,860
2018-12-11T08:34:54.833Z,744
2018-12-11T08:35:55.350Z,576
2018-12-11T08:36:56.200Z,472
2018-12-11T08:37:57.325Z,448
2018-12-11T08:38:58.554Z,472
2018-12-11T08:39:58.418Z,536
2018-12-11T08:40:58.828Z,620
2018-12-11T08:41:59.234Z,708
2018-12-11T08:43:00.366Z,800
2018-12-11T08:44:01.331Z,908
2018-12-11T08:45:02.330Z,1000
2018-12-11T08:46:03.575Z,1088
2018-12-11T08:47:03.738Z,1200
2018-12-11T08:48:04.144Z,1384
2018-12-11T08:49:04.836Z,1664
2018-12-11T08:50:05.800Z,2068
2018-12-11T08:51:08.079Z,2612
2018-12-11T08:52:08.851Z,3156
2018-12-11T08:53:09.419Z,3504
2018-12-11T08:54:09.550Z,3588
2018-12-11T08:55:10.680Z,3560
2018-12-11T08:56:11.362Z,3640
2018-12-11T08:57:12.752Z,3924
2018-12-11T08:58:13.170Z,4308
2018-12-11T08:59:13.305Z,4836
2018-12-11T09:00:14.270Z,5584
2018-12-11T09:01:14.681Z,6032
2018-12-11T09:02:15.811Z,6404
2018-12-11T09:03:17.497Z,6596
2018-12-11T09:04:19.024Z,6904
2018-12-11T09:05:18.709Z,7152
2018-12-11T09:06:19.187Z,7392
2018-12-11T09:07:20.223Z,9216
2018-12-11T09:08:19.922Z,9720
2018-12-11T09:09:21.059Z,10024
2018-12-11T09:10:22.919Z,14488
2018-12-11T09:11:22.628Z,9852
2018-12-11T09:12:23.592Z,8644
2018-12-11T09:13:25.000Z,8860
2018-12-11T09:14:25.965Z,6972
2018-12-11T09:15:26.929Z,5032
2018-12-11T09:16:27.614Z,4364
2018-12-11T09:17:28.433Z,3976
2018-12-11T09:18:29.122Z,3672
2018-12-11T09:19:30.086Z,3284
2018-12-11T09:20:31.050Z,3096
2018-12-11T09:21:31.743Z,3028
2018-12-11T09:22:31.881Z,2960
2018-12-11T09:23:33.571Z,2896
2018-12-11T09:24:34.626Z,2892
2018-12-11T09:25:35.311Z,2992
2018-12-11T09:26:36.002Z,3112
2018-12-11T09:27:37.197Z,3208
2018-12-11T09:28:38.463Z,3332
2018-12-11T09:29:40.526Z,3468
2018-12-11T09:30:41.446Z,3600
2018-12-11T09:31:44.357Z,3724
2018-12-11T09:32:44.417Z,3920
2018-12-11T09:33:45.709Z,4128
2018-12-11T09:34:45.882Z,4236
2018-12-11T09:35:45.393Z,4404
2018-12-11T09:36:46.082Z,4588
2018-12-11T09:37:47.479Z,4740
2018-12-11T09:38:48.168Z,4884
2018-12-11T09:39:49.132Z,4832
2018-12-11T09:40:50.106Z,4660
2018-12-11T09:41:50.237Z,4412
2018-12-11T09:42:51.646Z,4176
2018-12-11T09:43:53.050Z,3952
2018-12-11T09:44:54.014Z,3732
2018-12-11T09:45:54.476Z,3508
2018-12-11T09:46:55.088Z,3324
2018-12-11T09:47:55.630Z,3124
2018-12-11T09:48:57.042Z,3008
2018-12-11T09:49:57.449Z,2908
2018-12-11T09:50:58.585Z,2812
2018-12-11T09:52:00.000Z,2752
2018-12-11T09:53:00.729Z,2704
2018-12-11T09:54:01.415Z,2688
2018-12-11T09:55:02.656Z,2668
2018-12-11T09:56:03.372Z,2652
2018-12-11T09:57:04.056Z,2668
2018-12-11T09:58:04.960Z,2688
2018-12-11T09:59:06.484Z,2684
2018-12-11T10:00:05.893Z,2652
2018-12-11T10:01:07.873Z,2600
2018-12-11T10:02:08.211Z,2544
2018-12-11T10:03:08.899Z,2520
2018-12-11T10:04:10.034Z,2584
2018-12-11T10:05:11.161Z,2720
2018-12-11T10:06:12.291Z,2820
2018-12-11T10:07:15.300Z,2864
2018-12-11T10:08:15.475Z,2904
2018-12-11T10:09:15.607Z,2868
2018-12-11T10:10:16.293Z,2808
2018-12-11T10:11:16.980Z,2724
2018-12-11T10:12:17.387Z,2680
2018-12-11T10:13:18.522Z,2620
2018-12-11T10:14:20.672Z,2500
2018-12-11T10:15:20.363Z,2348
2018-12-11T10:16:20.765Z,2212
2018-12-11T10:17:21.178Z,2100
2018-12-11T10:18:22.062Z,2088
2018-12-11T10:19:23.471Z,2120
2018-12-11T10:20:24.443Z,2196
2018-12-11T10:21:25.129Z,2272
2018-12-11T10:22:25.264Z,2360
2018-12-11T10:23:38.875Z,2472
2018-12-11T10:24:42.573Z,2572
2018-12-11T10:24:52.308Z,2592
2018-12-11T10:25:54.714Z,2840
2018-12-11T10:26:53.737Z,3244
2018-12-11T10:27:53.710Z,3896
2018-12-11T10:28:54.676Z,4420
2018-12-11T10:29:55.646Z,4544
2018-12-11T10:30:55.888Z,4544
2018-12-11T10:31:56.017Z,4752
2018-12-11T10:32:59.287Z,5148
2018-12-11T10:33:59.035Z,6680
2018-12-11T10:35:01.891Z,6672
2018-12-11T10:36:01.243Z,9828
2018-12-11T10:37:04.253Z,9904
2018-12-11T10:38:07.132Z,11320
2018-12-11T10:39:06.122Z,22400
2018-12-11T10:40:06.797Z,65920
2018-12-11T10:41:08.124Z,74144
2018-12-11T10:42:09.914Z,33344
2018-12-11T10:43:13.736Z,34144
2018-12-11T10:44:13.102Z,12848
2018-12-11T10:45:12.743Z,8988
2018-12-11T10:46:13.309Z,5896
2018-12-11T10:47:13.839Z,4184
2018-12-11T10:48:14.796Z,2844
2018-12-11T10:49:15.412Z,2232
2018-12-11T10:50:15.823Z,1700
2018-12-11T10:51:15.951Z,1144
2018-12-11T10:52:16.362Z,1152
2018-12-11T10:53:17.324Z,1436
2018-12-11T10:54:17.636Z,1912
2018-12-11T10:55:18.322Z,2492
2018-12-11T10:56:19.412Z,3064
2018-12-11T10:57:19.374Z,3592
2018-12-11T10:58:20.781Z,4004
2018-12-11T10:59:21.480Z,4280
2018-12-11T11:00:21.889Z,4520
2018-12-11T11:01:22.575Z,4776
2018-12-11T11:02:22.983Z,4952
2018-12-11T11:03:23.445Z,5104
2018-12-11T11:04:24.367Z,5288
2018-12-11T11:05:25.078Z,5488
2018-12-11T11:06:25.062Z,5768
2018-12-11T11:07:26.526Z,6116
2018-12-11T11:08:27.263Z,6420
2018-12-11T11:09:27.824Z,6840
2018-12-11T11:10:30.154Z,7384
2018-12-11T11:11:30.193Z,8180
2018-12-11T11:12:31.515Z,11380
2018-12-11T11:13:31.178Z,13960
2018-12-11T11:14:32.818Z,9196
2018-12-11T11:15:32.943Z,17280
2018-12-11T11:16:33.779Z,12068
2018-12-11T11:17:35.259Z,9008
2018-12-11T11:18:35.965Z,6944
2018-12-11T11:19:36.930Z,7384
2018-12-11T11:20:36.877Z,38688
2018-12-11T11:21:37.860Z,38080
2018-12-11T11:22:38.224Z,28896
2018-12-11T11:23:38.920Z,41120
2018-12-11T11:24:40.263Z,41280
2018-12-11T11:25:40.519Z,27552
2018-12-11T11:26:41.817Z,37024
2018-12-11T11:27:42.509Z,26112
2018-12-11T11:28:44.134Z,14252
2018-12-11T11:29:44.861Z,14132
2018-12-11T11:30:45.283Z,26048
2018-12-11T11:31:45.695Z,48000
2018-12-11T11:32:47.659Z,26592
2018-12-11T11:34:02.728Z,15360
2018-12-11T11:35:00.345Z,8572
2018-12-11T11:36:01.113Z,10072
2018-12-11T11:37:02.148Z,13828
2018-12-11T11:38:02.579Z,29504
2018-12-11T11:39:02.995Z,45056
2018-12-11T11:40:03.561Z,38912
2018-12-11T11:41:07.324Z,5928
2018-12-11T11:42:05.146Z,6976
2018-12-11T11:43:05.310Z,7624
2018-12-11T11:44:06.067Z,7976
2018-12-11T11:45:06.180Z,8760
2018-12-11T11:46:06.878Z,9108
2018-12-11T11:47:07.572Z,7612
2018-12-11T11:48:13.911Z,5468
2018-12-11T11:48:21.518Z,5296
2018-12-11T11:49:26.591Z,4520
2018-12-11T11:50:24.342Z,3980
2018-12-11T11:51:25.457Z,3600
2018-12-11T11:52:25.506Z,3412
2018-12-11T11:53:25.641Z,3676
2018-12-11T11:54:26.119Z,3816
2018-12-11T11:55:26.820Z,3732
2018-12-11T11:56:26.516Z,3520
2018-12-11T11:57:31.506Z,3236
2018-12-11T11:58:32.193Z,3044
2018-12-11T11:59:34.151Z,2832
2018-12-11T12:00:33.635Z,2792
2018-12-11T12:01:34.048Z,2876
2018-12-11T12:02:34.926Z,3052
2018-12-11T12:03:35.618Z,3184
2018-12-11T12:04:36.609Z,3248
2018-12-11T12:05:37.424Z,3452
2018-12-11T12:06:38.160Z,3668
2018-12-11T12:07:42.288Z,3804
2018-12-11T12:08:40.699Z,3820
2018-12-11T12:09:40.883Z,3640
2018-12-11T12:10:46.048Z,3192
2018-12-11T12:11:44.181Z,2268
2018-12-11T12:12:44.147Z,1672
2018-12-11T12:13:45.330Z,1472
2018-12-11T12:14:59.773Z,1528
2018-12-11T12:15:57.626Z,1592
2018-12-11T12:16:58.036Z,1664
2018-12-11T12:17:58.721Z,1744
2018-12-11T12:19:01.130Z,1868
2018-12-11T12:20:04.438Z,1924
2018-12-11T12:20:12.253Z,1940
2018-12-11T12:21:18.447Z,2148
2018-12-11T12:21:26.676Z,2188
2018-12-11T12:22:25.757Z,2508
2018-12-11T12:23:26.057Z,2696
2018-12-11T12:24:26.465Z,2860
2018-12-11T12:25:31.593Z,2996
2018-12-11T12:25:41.086Z,3012
2018-12-11T12:26:40.669Z,3052
2018-12-11T12:27:41.255Z,3044
2018-12-11T12:28:41.386Z,3068
2018-12-11T12:29:42.516Z,3156
2018-12-11T12:30:44.200Z,3044
2018-12-11T12:31:46.434Z,2904
2018-12-11T12:32:49.046Z,2832
2018-12-11T12:33:49.184Z,2788
2018-12-11T12:34:49.010Z,2816
2018-12-11T12:35:49.695Z,2944
2018-12-11T12:36:52.220Z,3120
2018-12-11T12:37:52.628Z,3352
2018-12-11T12:38:54.571Z,3596
2018-12-11T12:39:54.821Z,3876
2018-12-11T12:40:54.953Z,4156
2018-12-11T12:41:56.198Z,4340
2018-12-11T12:42:57.526Z,4364
2018-12-11T12:44:00.244Z,4316
2018-12-11T12:45:00.900Z,4300
2018-12-11T12:46:00.274Z,4300
2018-12-11T12:47:01.112Z,4324
2018-12-11T12:48:02.356Z,4320
2018-12-11T12:49:03.095Z,4496
2018-12-11T12:50:04.490Z,4720
2018-12-11T12:51:04.375Z,4804
2018-12-11T12:52:05.620Z,5808
2018-12-11T12:53:08.237Z,6228
2018-12-11T12:54:07.477Z,9624
2018-12-11T12:55:09.032Z,13528
2018-12-11T12:56:09.538Z,25888
2018-12-11T12:57:12.552Z,5988
2018-12-11T12:58:13.647Z,20064
2018-12-11T12:58:23.703Z,24736
2018-12-11T12:59:23.600Z,12324
2018-12-11T13:00:27.303Z,13024
2018-12-11T13:01:25.992Z,15296
2018-12-11T13:02:26.398Z,5016
2018-12-11T13:03:27.841Z,10844
2018-12-11T13:04:28.589Z,11820
2018-12-11T13:05:29.295Z,6072
2018-12-11T13:06:30.260Z,5948
2018-12-11T13:07:30.946Z,9180
2018-12-11T13:08:33.890Z,5052
2018-12-11T13:09:33.264Z,5408
2018-12-11T13:10:35.707Z,7160
2018-12-11T13:11:36.675Z,4444
2018-12-11T13:12:38.142Z,4480
2018-12-11T13:13:38.275Z,4736
2018-12-11T13:14:38.587Z,5216
2018-12-11T13:15:40.130Z,5776
2018-12-11T13:16:40.446Z,4968
2018-12-11T13:17:40.912Z,6476
2018-12-11T13:18:41.055Z,13920
2018-12-11T13:19:41.865Z,4356
2018-12-11T13:20:42.313Z,4388
2018-12-11T13:21:43.334Z,4500
2018-12-11T13:22:43.633Z,11416
2018-12-11T13:23:44.771Z,14528
2018-12-11T13:24:45.915Z,13664
2018-12-11T13:25:47.325Z,5868
2018-12-11T13:26:49.805Z,3480
2018-12-11T13:27:50.418Z,3144
2018-12-11T13:28:50.674Z,2744
2018-12-11T13:29:51.535Z,2340
2018-12-11T13:30:57.657Z,2172
2018-12-11T13:31:08.297Z,2172
2018-12-11T13:32:08.486Z,2160
2018-12-11T13:33:07.200Z,2132
2018-12-11T13:34:09.767Z,2196
2018-12-11T13:35:08.650Z,2364
2018-12-11T13:36:08.841Z,2296
2018-12-11T13:37:09.798Z,2124
2018-12-11T13:38:13.394Z,1928
2018-12-11T13:39:11.157Z,1772
2018-12-11T13:40:12.589Z,1552
2018-12-11T13:41:13.193Z,1392
2018-12-11T13:42:14.316Z,1356
2018-12-11T13:43:16.336Z,1288
2018-12-11T13:44:17.151Z,1192
2018-12-11T13:45:17.779Z,1136
2018-12-11T13:46:18.374Z,1112
2018-12-11T13:47:17.397Z,1080
2018-12-11T13:48:29.847Z,1080
2018-12-11T13:49:30.998Z,1060
2018-12-11T13:50:31.377Z,1072
2018-12-11T13:51:31.836Z,1104
2018-12-11T13:52:34.971Z,1136
2018-12-11T13:53:36.479Z,1160
2018-12-11T13:54:37.247Z,1196
2018-12-11T13:55:37.654Z,1216
2018-12-11T13:56:38.063Z,1232
2018-12-11T13:57:39.984Z,1156
2018-12-11T13:58:39.576Z,1084
2018-12-11T13:59:40.812Z,1040
2018-12-11T14:00:46.258Z,1004
2018-12-11T14:00:56.437Z,1000
2018-12-11T14:01:53.827Z,976
2018-12-11T14:02:54.234Z,968
2018-12-11T14:03:55.366Z,964
2018-12-11T14:05:00.775Z,948
2018-12-11T14:05:10.767Z,948